map of LCI home
LCI - Airport
Location
City:  Laconia, New Hampshire, United States
Name:Laconia Municipal Airport
ICAO:KLCI
IATA:LCI
FAA LID:LCI

Details
Type:Airport (Airfield)
Use:Public/Civil
Latitude:4334'23"N (43.573042)
Longitude:7125'04"W (-71.417841)
Datum:WGS 1984
Elevation:545 ft (166 m)
Variation:14.65W (WMM2015v2 magnetic declination)
0.09 annual change
Runways:1
Longest:5890 × 100 ft (1795 × 30.5 m), paved

Time
Time Zone:UTC-5 (DST-4)
Local Time:

Weather
METAR:KLCI 041356Z AUTO 00000KT 10SM OVC065 02/M02 A3000 RMK AO2 SLP177 T00171017 FZRANO $

Related Locations
Nearby:
Farthest:YAUG: 11704 mi / 18836 km
Augusta [Augusta Airport], WA, AU

Find:

   beyond  
but within

Other Information
Maps:
NOTAMs:
Links:
Sources:

  
  • flag of United States
  • flag of New Hampshire
  

Sectional Chart

Flight Planning
at skyvector.com

Satellite Image

Google Maps Satellite view

 

Copyright © 2004-2019 Karl L. Swartz. All rights reserved.
The Great Circle Mapper name and logo are trademarks of the Great Circle Mapper.
All other trademarks mentioned herein belong to their respective owners.
Please see credits for attibutions and further copyright information.

  Follow gcmap on Facebook Follow gcmap on Twitter GCmap on LinkedIn

hCard Microformat

Geo Microformat